createdAt,value
2022-11-27T00:01:34.897Z,4.60
2022-11-27T00:04:01.886Z,4.56
2022-11-27T00:06:30.361Z,4.48
2022-11-27T00:09:03.696Z,4.46
2022-11-27T00:11:32.006Z,4.46
2022-11-27T00:13:59.460Z,4.51
2022-11-27T00:16:28.095Z,4.49
2022-11-27T00:18:54.676Z,4.39
2022-11-27T00:21:29.181Z,4.32
2022-11-27T00:23:58.245Z,4.35
2022-11-27T00:26:26.501Z,4.29
2022-11-27T00:28:54.111Z,4.24
2022-11-27T00:31:30.774Z,4.08
2022-11-27T00:33:59.126Z,3.63
2022-11-27T00:36:31.554Z,3.77
2022-11-27T00:38:58.861Z,3.73
2022-11-27T00:41:29.313Z,3.67
2022-11-27T00:43:57.264Z,3.69
2022-11-27T00:46:29.560Z,3.73
2022-11-27T00:49:01.659Z,3.74
2022-11-27T00:51:29.677Z,3.76
2022-11-27T00:53:56.805Z,3.77
2022-11-27T00:56:28.016Z,3.71
2022-11-27T00:58:55.646Z,3.48
2022-11-27T01:01:30.081Z,3.23
2022-11-27T01:03:59.424Z,3.06
2022-11-27T01:06:27.187Z,2.89
2022-11-27T01:08:54.301Z,2.83
2022-11-27T01:11:28.765Z,2.62
2022-11-27T01:13:59.239Z,2.63
2022-11-27T01:16:28.938Z,2.60
2022-11-27T01:18:58.948Z,2.69
2022-11-27T01:21:29.613Z,2.55
2022-11-27T01:23:56.609Z,2.49
2022-11-27T01:26:23.264Z,2.38
2022-11-27T01:28:53.967Z,2.32
2022-11-27T01:31:24.732Z,2.25
2022-11-27T01:33:57.854Z,2.19
2022-11-27T01:36:25.024Z,2.15
2022-11-27T01:38:51.930Z,2.09
2022-11-27T01:41:25.918Z,2.06
2022-11-27T01:44:01.423Z,1.95
2022-11-27T01:46:42.495Z,1.96
2022-11-27T01:49:11.893Z,1.98
2022-11-27T01:51:49.984Z,1.86
2022-11-27T01:54:20.277Z,1.96
2022-11-27T01:56:52.140Z,1.95
2022-11-27T01:59:19.444Z,2.00
2022-11-27T02:01:46.253Z,1.93
2022-11-27T02:04:13.130Z,1.86
2022-11-27T02:06:40.051Z,1.77
2022-11-27T02:09:06.959Z,1.83
2022-11-27T02:11:50.474Z,1.76
2022-11-27T02:14:37.206Z,1.60
2022-11-27T02:17:06.348Z,1.68
2022-11-27T02:20:11.914Z,1.72
2022-11-27T02:23:15.080Z,1.58
2022-11-27T02:26:31.550Z,1.42
2022-11-27T02:29:09.102Z,1.29
2022-11-27T02:32:09.383Z,1.25
2022-11-27T02:34:58.865Z,1.38
2022-11-27T02:37:47.470Z,1.30
2022-11-27T02:40:42.471Z,1.16
2022-11-27T02:43:24.788Z,1.20
2022-11-27T02:45:52.753Z,1.35
2022-11-27T02:48:27.096Z,1.52
2022-11-27T02:50:55.738Z,1.64
2022-11-27T02:53:39.286Z,1.68
2022-11-27T02:56:14.740Z,1.57
2022-11-27T02:58:42.343Z,1.52
2022-11-27T03:01:12.370Z,1.41
2022-11-27T03:03:47.896Z,1.40
2022-11-27T03:06:24.933Z,1.39
2022-11-27T03:09:00.353Z,1.39
2022-11-27T03:11:30.689Z,1.29
2022-11-27T03:14:07.578Z,1.31
2022-11-27T03:16:48.259Z,1.32
2022-11-27T03:19:42.125Z,1.16
2022-11-27T03:22:09.071Z,1.10
2022-11-27T03:24:36.571Z,1.09
2022-11-27T03:27:05.168Z,1.21
2022-11-27T03:29:51.323Z,1.22
2022-11-27T03:32:18.419Z,1.10
2022-11-27T03:34:46.655Z,0.98
2022-11-27T03:37:13.582Z,1.03
2022-11-27T03:39:40.316Z,1.10
2022-11-27T03:42:27.325Z,1.05
2022-11-27T03:45:37.748Z,1.03
2022-11-27T03:48:50.360Z,0.81
2022-11-27T03:51:36.139Z,0.73
2022-11-27T03:54:15.288Z,0.93
2022-11-27T03:56:56.415Z,0.80
2022-11-27T03:59:33.944Z,0.78
2022-11-27T04:02:00.471Z,0.79
2022-11-27T04:04:27.010Z,0.71
2022-11-27T04:06:53.515Z,0.66
2022-11-27T04:09:20.206Z,0.67
2022-11-27T04:11:46.667Z,0.79
2022-11-27T04:14:13.134Z,0.84
2022-11-27T04:16:39.647Z,0.80
2022-11-27T04:19:06.336Z,0.69
2022-11-27T04:21:32.812Z,0.60
2022-11-27T04:23:59.241Z,0.63
2022-11-27T04:26:25.704Z,0.58
2022-11-27T04:28:52.192Z,0.59
2022-11-27T04:31:18.769Z,0.56
2022-11-27T04:33:45.285Z,0.64
2022-11-27T04:36:11.760Z,0.81
2022-11-27T04:38:38.208Z,0.95
2022-11-27T04:41:04.974Z,0.93
2022-11-27T04:43:31.436Z,0.98
2022-11-27T04:45:57.941Z,0.91
2022-11-27T04:48:24.483Z,1.00
2022-11-27T04:50:50.979Z,1.05
2022-11-27T04:53:17.476Z,1.04
2022-11-27T04:55:43.985Z,1.11
2022-11-27T04:58:10.508Z,1.24
2022-11-27T05:00:37.087Z,1.21
2022-11-27T05:03:03.674Z,1.17
2022-11-27T05:05:30.157Z,1.22
2022-11-27T05:07:56.682Z,1.31
2022-11-27T05:10:23.213Z,1.36
2022-11-27T05:12:49.751Z,1.47
2022-11-27T05:15:16.312Z,1.67
2022-11-27T05:17:42.759Z,1.72
2022-11-27T05:20:09.782Z,1.62
2022-11-27T05:22:36.393Z,1.61
2022-11-27T05:25:02.867Z,1.64
2022-11-27T05:27:29.376Z,1.60
2022-11-27T05:29:55.949Z,1.56
2022-11-27T05:32:22.435Z,1.50
2022-11-27T05:34:49.651Z,1.51
2022-11-27T05:37:19.459Z,1.47
2022-11-27T05:39:46.752Z,1.49
2022-11-27T05:42:13.333Z,1.49
2022-11-27T05:44:39.955Z,1.64
2022-11-27T05:47:06.819Z,1.62
2022-11-27T05:49:33.313Z,1.51
2022-11-27T05:51:59.788Z,1.46
2022-11-27T05:54:26.445Z,1.43
2022-11-27T05:56:52.885Z,1.58
2022-11-27T05:59:19.438Z,1.73
2022-11-27T06:01:46.120Z,1.74
2022-11-27T06:04:12.624Z,1.66
2022-11-27T06:06:39.095Z,1.62
2022-11-27T06:09:10.890Z,1.76
2022-11-27T06:11:38.995Z,1.87
2022-11-27T06:14:10.895Z,1.78
2022-11-27T06:16:37.608Z,1.70
2022-11-27T06:19:04.295Z,1.62
2022-11-27T06:21:30.785Z,1.59
2022-11-27T06:23:57.607Z,1.61
2022-11-27T06:26:29.172Z,1.67
2022-11-27T06:28:58.184Z,1.72
2022-11-27T06:31:29.510Z,1.85
2022-11-27T06:33:57.408Z,1.86
2022-11-27T06:36:29.249Z,1.90
2022-11-27T06:38:55.937Z,2.05
2022-11-27T06:41:26.578Z,2.09
2022-11-27T06:43:54.733Z,1.85
2022-11-27T06:46:23.551Z,1.88
2022-11-27T06:48:53.854Z,1.99
2022-11-27T06:51:24.865Z,1.94
2022-11-27T06:53:53.047Z,1.82
2022-11-27T06:56:26.092Z,1.88
2022-11-27T06:58:56.158Z,2.05
2022-11-27T07:01:25.480Z,1.96
2022-11-27T07:03:52.189Z,1.89
2022-11-27T07:06:22.826Z,1.84
2022-11-27T07:08:49.786Z,1.86
2022-11-27T07:11:28.197Z,2.01
2022-11-27T07:13:58.548Z,2.06
2022-11-27T07:16:26.441Z,2.18
2022-11-27T07:18:57.688Z,2.23
2022-11-27T07:21:25.246Z,2.33
2022-11-27T07:23:52.028Z,2.38
2022-11-27T07:26:22.634Z,2.47
2022-11-27T07:28:49.722Z,2.60
2022-11-27T07:31:20.829Z,2.40
2022-11-27T07:33:47.548Z,2.30
2022-11-27T07:36:18.338Z,2.20
2022-11-27T07:38:46.359Z,2.28
2022-11-27T07:41:14.203Z,2.36
2022-11-27T07:43:43.390Z,2.45
2022-11-27T07:46:28.014Z,2.49
2022-11-27T07:48:54.507Z,2.55
2022-11-27T07:51:22.503Z,2.63
2022-11-27T07:53:51.714Z,2.57
2022-11-27T07:56:19.807Z,2.73
2022-11-27T07:58:47.421Z,2.81
2022-11-27T08:01:18.512Z,2.89
2022-11-27T08:03:46.145Z,2.96
2022-11-27T08:06:25.588Z,2.84
2022-11-27T08:08:55.873Z,3.00
2022-11-27T08:11:32.979Z,3.13
2022-11-27T08:14:06.019Z,3.19
2022-11-27T08:16:35.450Z,3.16
2022-11-27T08:19:02.711Z,3.13
2022-11-27T08:21:30.176Z,3.21
2022-11-27T08:23:58.089Z,3.24
2022-11-27T08:26:27.561Z,3.29
2022-11-27T08:28:54.981Z,3.26
2022-11-27T08:31:21.917Z,3.36
2022-11-27T08:33:48.737Z,3.36
2022-11-27T08:36:18.302Z,3.47
2022-11-27T08:38:46.485Z,3.56
2022-11-27T08:41:13.273Z,3.65
2022-11-27T08:43:39.730Z,3.63
2022-11-27T08:46:07.865Z,3.69
2022-11-27T08:48:35.062Z,3.73
2022-11-27T08:51:11.236Z,3.81
2022-11-27T08:53:38.562Z,3.93
2022-11-27T08:56:21.316Z,3.94
2022-11-27T08:58:48.945Z,4.10
2022-11-27T09:01:25.875Z,4.11
2022-11-27T09:03:53.048Z,4.27
2022-11-27T09:06:23.471Z,4.45
2022-11-27T09:08:50.536Z,4.66
2022-11-27T09:11:20.275Z,4.73
2022-11-27T09:13:47.604Z,4.96
2022-11-27T09:16:17.376Z,5.05
2022-11-27T09:18:46.315Z,5.09
2022-11-27T09:21:15.148Z,5.24
2022-11-27T09:23:42.489Z,5.34
2022-11-27T09:26:15.088Z,5.43
2022-11-27T09:28:42.684Z,5.57
2022-11-27T09:31:12.667Z,5.73
2022-11-27T09:33:41.227Z,5.79
2022-11-27T09:36:17.808Z,5.89
2022-11-27T09:38:45.048Z,5.94
2022-11-27T09:41:11.716Z,6.09
2022-11-27T09:44:00.542Z,6.13
2022-11-27T09:46:35.424Z,6.13
2022-11-27T09:49:07.807Z,6.22
2022-11-27T09:51:50.949Z,6.27
2022-11-27T09:54:26.556Z,6.35
2022-11-27T09:56:56.168Z,6.43
2022-11-27T09:59:33.440Z,6.47
2022-11-27T10:02:00.070Z,6.65
2022-11-27T10:04:30.332Z,6.64
2022-11-27T10:07:14.942Z,6.65
2022-11-27T10:10:24.540Z,6.75
2022-11-27T10:13:22.834Z,6.72
2022-11-27T10:15:58.279Z,6.88
2022-11-27T10:18:48.429Z,7.00
2022-11-27T10:21:40.350Z,7.10
2022-11-27T10:24:56.154Z,7.15
2022-11-27T10:27:47.375Z,7.10
2022-11-27T10:30:18.962Z,7.13
2022-11-27T10:32:56.281Z,7.17
2022-11-27T10:35:30.551Z,7.15
2022-11-27T10:38:07.214Z,7.21
2022-11-27T10:41:04.919Z,7.33
2022-11-27T10:43:31.495Z,7.39
2022-11-27T10:46:10.545Z,7.43
2022-11-27T10:48:37.221Z,7.57
2022-11-27T10:51:03.798Z,7.61
2022-11-27T10:53:37.161Z,7.51
2022-11-27T10:56:12.444Z,7.43
2022-11-27T10:58:55.175Z,7.48
2022-11-27T11:01:24.447Z,7.56
2022-11-27T11:04:14.223Z,7.57
2022-11-27T11:06:50.532Z,7.56
2022-11-27T11:09:34.711Z,7.59
2022-11-27T11:12:16.788Z,7.60
2022-11-27T11:14:58.720Z,7.79
2022-11-27T11:17:28.833Z,7.84
2022-11-27T11:19:55.511Z,7.97
2022-11-27T11:22:22.680Z,8.04
2022-11-27T11:24:53.114Z,8.05
2022-11-27T11:27:26.892Z,8.05
2022-11-27T11:29:56.456Z,8.00
2022-11-27T11:32:32.100Z,7.92
2022-11-27T11:35:08.492Z,7.94
2022-11-27T11:37:41.037Z,7.95
2022-11-27T11:40:16.057Z,7.91
2022-11-27T11:42:57.957Z,7.86
2022-11-27T11:45:32.831Z,7.99
2022-11-27T11:48:27.659Z,7.93
2022-11-27T11:51:11.647Z,7.95
2022-11-27T11:53:39.440Z,7.99
2022-11-27T11:56:40.503Z,7.99
2022-11-27T11:59:43.735Z,8.02
2022-11-27T12:02:52.694Z,7.91
2022-11-27T12:05:30.068Z,7.87
2022-11-27T12:08:34.832Z,7.77
2022-11-27T12:11:18.994Z,7.81
2022-11-27T12:13:57.825Z,7.81
2022-11-27T12:16:48.280Z,7.85
2022-11-27T12:19:40.257Z,7.83
2022-11-27T12:22:37.222Z,7.79
2022-11-27T12:26:01.352Z,7.71
2022-11-27T12:28:37.885Z,7.76
2022-11-27T12:31:32.556Z,7.82
2022-11-27T12:34:16.578Z,7.94
2022-11-27T12:36:55.213Z,7.93
2022-11-27T12:39:32.508Z,7.97
2022-11-27T12:42:34.990Z,8.01
2022-11-27T12:45:16.477Z,7.82
2022-11-27T12:47:53.323Z,7.83
2022-11-27T12:50:47.454Z,7.88
2022-11-27T12:53:33.219Z,7.84
2022-11-27T12:56:28.521Z,7.89
2022-11-27T12:59:11.033Z,7.91
2022-11-27T13:01:45.596Z,7.90
2022-11-27T13:04:37.277Z,7.94
2022-11-27T13:07:18.819Z,7.99
2022-11-27T13:10:03.207Z,8.02
2022-11-27T13:12:58.959Z,7.85
2022-11-27T13:15:37.196Z,7.98
2022-11-27T13:18:19.945Z,7.94
2022-11-27T13:20:52.335Z,7.94
2022-11-27T13:23:21.159Z,7.98
2022-11-27T13:25:55.820Z,7.99
2022-11-27T13:28:53.985Z,7.97
2022-11-27T13:31:27.132Z,7.95
2022-11-27T13:34:03.388Z,7.91
2022-11-27T13:36:46.889Z,7.89
2022-11-27T13:39:32.770Z,7.86
2022-11-27T13:42:22.282Z,7.68
2022-11-27T13:44:57.502Z,7.67
2022-11-27T13:47:29.257Z,7.69
2022-11-27T13:50:31.089Z,7.64
2022-11-27T13:53:04.619Z,7.66
2022-11-27T13:55:37.896Z,7.51
2022-11-27T13:58:06.687Z,7.57
2022-11-27T14:00:45.708Z,7.61
2022-11-27T14:03:27.144Z,7.62
2022-11-27T14:05:54.254Z,7.61
2022-11-27T14:08:34.095Z,7.67
2022-11-27T14:11:09.477Z,7.62
2022-11-27T14:13:46.499Z,7.61
2022-11-27T14:16:34.680Z,7.57
2022-11-27T14:19:25.652Z,7.58
2022-11-27T14:21:53.830Z,7.52
2022-11-27T14:24:44.139Z,7.55
2022-11-27T14:27:24.460Z,7.62
2022-11-27T14:29:52.186Z,7.69
2022-11-27T14:32:21.095Z,7.60
2022-11-27T14:34:48.984Z,7.60
2022-11-27T14:37:27.852Z,7.46
2022-11-27T14:39:55.542Z,7.45
2022-11-27T14:42:29.805Z,7.32
2022-11-27T14:45:07.471Z,7.25
2022-11-27T14:47:35.476Z,7.30
2022-11-27T14:50:03.902Z,7.30
2022-11-27T14:52:31.506Z,7.33
2022-11-27T14:55:00.905Z,7.28
2022-11-27T14:57:30.087Z,7.32
2022-11-27T15:00:29.030Z,7.36
2022-11-27T15:03:06.880Z,7.39
2022-11-27T15:05:37.600Z,7.48
2022-11-27T15:08:09.513Z,7.52
2022-11-27T15:10:41.674Z,7.46
2022-11-27T15:13:23.163Z,7.35
2022-11-27T15:16:25.059Z,7.27
2022-11-27T15:19:21.436Z,7.26
2022-11-27T15:21:50.431Z,7.14
2022-11-27T15:24:34.658Z,6.99
2022-11-27T15:27:27.680Z,6.96
2022-11-27T15:30:10.171Z,6.93
2022-11-27T15:32:54.553Z,6.99
2022-11-27T15:35:36.250Z,6.97
2022-11-27T15:38:10.633Z,7.04
2022-11-27T15:40:40.913Z,7.05
2022-11-27T15:43:16.193Z,7.01
2022-11-27T15:45:44.693Z,7.02
2022-11-27T15:48:21.022Z,7.00
2022-11-27T15:50:51.592Z,7.06
2022-11-27T15:53:18.673Z,7.14
2022-11-27T15:55:45.240Z,7.01
2022-11-27T15:58:11.733Z,6.90
2022-11-27T16:00:38.314Z,6.91
2022-11-27T16:03:04.892Z,6.95
2022-11-27T16:05:31.387Z,6.96
2022-11-27T16:07:58.081Z,6.93
2022-11-27T16:10:24.754Z,6.93
2022-11-27T16:12:54.813Z,6.98
2022-11-27T16:15:23.251Z,6.92
2022-11-27T16:17:50.714Z,6.86
2022-11-27T16:20:17.390Z,6.84
2022-11-27T16:22:43.926Z,6.81
2022-11-27T16:25:10.431Z,6.90
2022-11-27T16:27:37.218Z,6.91
2022-11-27T16:30:04.672Z,6.92
2022-11-27T16:32:31.116Z,6.82
2022-11-27T16:34:57.748Z,6.73
2022-11-27T16:37:24.334Z,6.73
2022-11-27T16:39:50.826Z,6.73
2022-11-27T16:42:17.309Z,6.74
2022-11-27T16:44:44.432Z,6.67
2022-11-27T16:47:11.658Z,6.62
2022-11-27T16:49:38.171Z,6.69
2022-11-27T16:52:04.659Z,6.71
2022-11-27T16:54:31.141Z,6.73
2022-11-27T16:56:57.587Z,6.81
2022-11-27T16:59:24.108Z,6.66
2022-11-27T17:01:50.580Z,6.66
2022-11-27T17:04:19.977Z,6.70
2022-11-27T17:06:49.240Z,6.71
2022-11-27T17:09:16.624Z,6.73
2022-11-27T17:11:48.596Z,6.57
2022-11-27T17:14:16.222Z,6.43
2022-11-27T17:16:43.012Z,6.44
2022-11-27T17:19:13.712Z,6.56
2022-11-27T17:21:41.010Z,6.57
2022-11-27T17:24:15.250Z,6.60
2022-11-27T17:26:43.436Z,6.66
2022-11-27T17:29:13.309Z,6.55
2022-11-27T17:31:40.071Z,6.47
2022-11-27T17:34:07.709Z,6.58
2022-11-27T17:36:37.344Z,6.69
2022-11-27T17:39:06.113Z,6.76
2022-11-27T17:41:33.432Z,6.80
2022-11-27T17:44:00.468Z,6.75
2022-11-27T17:46:28.933Z,6.69
2022-11-27T17:48:59.032Z,6.68
2022-11-27T17:51:27.968Z,6.75
2022-11-27T17:53:54.471Z,6.78
2022-11-27T17:56:22.290Z,6.80
2022-11-27T17:58:48.956Z,6.80
2022-11-27T18:01:22.289Z,6.78
2022-11-27T18:03:49.292Z,6.73
2022-11-27T18:06:19.025Z,6.65
2022-11-27T18:08:47.552Z,6.71
2022-11-27T18:11:21.990Z,6.69
2022-11-27T18:13:49.576Z,6.55
2022-11-27T18:16:30.521Z,6.58
2022-11-27T18:18:59.440Z,6.46
2022-11-27T18:21:31.011Z,6.43
2022-11-27T18:24:22.527Z,6.51
2022-11-27T18:27:07.080Z,6.11
2022-11-27T18:29:32.904Z,6.38
2022-11-27T18:31:59.492Z,6.41
2022-11-27T18:34:26.080Z,6.39
2022-11-27T18:36:57.053Z,6.45
2022-11-27T18:39:23.658Z,6.52
2022-11-27T18:41:50.139Z,6.47
2022-11-27T18:44:16.613Z,6.51
2022-11-27T18:46:43.103Z,6.48
2022-11-27T18:49:09.612Z,6.57
2022-11-27T18:51:36.136Z,6.56
2022-11-27T18:54:02.623Z,6.49
2022-11-27T18:56:31.938Z,6.61
2022-11-27T18:59:05.856Z,6.57
2022-11-27T19:01:41.208Z,6.50
2022-11-27T19:04:10.495Z,6.50
2022-11-27T19:06:39.341Z,6.58
2022-11-27T19:09:06.589Z,6.67
2022-11-27T19:11:34.855Z,6.68
2022-11-27T19:14:01.859Z,6.67
2022-11-27T19:16:33.944Z,6.74
2022-11-27T19:19:03.263Z,6.62
2022-11-27T19:21:33.325Z,6.68
2022-11-27T19:24:02.794Z,6.84
2022-11-27T19:26:36.400Z,6.81
2022-11-27T19:29:08.064Z,6.84
2022-11-27T19:31:39.148Z,6.73
2022-11-27T19:34:07.358Z,6.63
2022-11-27T19:39:11.444Z,6.82
2022-11-27T19:41:38.189Z,6.71
2022-11-27T19:44:05.836Z,6.67
2022-11-27T19:46:37.885Z,6.61
2022-11-27T19:49:08.905Z,6.56
2022-11-27T19:51:38.253Z,6.55
2022-11-27T19:54:10.193Z,6.49
2022-11-27T19:56:38.723Z,6.49
2022-11-27T19:59:06.636Z,6.47
2022-11-27T20:01:33.457Z,6.47
2022-11-27T20:04:00.206Z,6.42
2022-11-27T20:06:27.711Z,6.33
2022-11-27T20:09:00.734Z,6.39
2022-11-27T20:11:34.297Z,6.39
2022-11-27T20:14:02.449Z,6.28
2022-11-27T20:16:29.350Z,6.25
2022-11-27T20:18:56.013Z,6.25
2022-11-27T20:21:25.885Z,6.14
2022-11-27T20:23:54.164Z,6.18
2022-11-27T20:26:24.379Z,6.04
2022-11-27T20:28:52.952Z,6.03
2022-11-27T20:31:26.726Z,5.99
2022-11-27T20:33:57.166Z,6.03
2022-11-27T20:36:25.308Z,6.07
2022-11-27T20:38:55.512Z,6.04
2022-11-27T20:41:23.032Z,6.00
2022-11-27T20:43:54.727Z,6.00
2022-11-27T20:46:21.405Z,6.07
2022-11-27T20:48:50.677Z,6.04
2022-11-27T20:51:21.140Z,5.96
2022-11-27T20:53:49.103Z,6.02
2022-11-27T20:56:19.564Z,5.94
2022-11-27T20:58:47.721Z,5.83
2022-11-27T21:01:29.520Z,5.76
2022-11-27T21:03:58.692Z,5.59
2022-11-27T21:06:29.923Z,5.65
2022-11-27T21:09:01.849Z,5.72
2022-11-27T21:11:31.352Z,5.72
2022-11-27T21:14:05.876Z,5.67
2022-11-27T21:16:37.243Z,5.67
2022-11-27T21:19:13.410Z,5.66
2022-11-27T21:21:40.016Z,5.61
2022-11-27T21:24:07.820Z,5.62
2022-11-27T21:26:35.141Z,5.59
2022-11-27T21:29:01.728Z,5.63
2022-11-27T21:31:34.579Z,5.53
2022-11-27T21:34:06.134Z,5.55
2022-11-27T21:36:36.049Z,5.42
2022-11-27T21:39:08.207Z,5.47
2022-11-27T21:41:35.719Z,5.37
2022-11-27T21:44:03.974Z,5.33
2022-11-27T21:46:31.229Z,5.34
2022-11-27T21:49:00.819Z,5.38
2022-11-27T21:51:29.443Z,5.24
2022-11-27T21:53:58.680Z,5.23
2022-11-27T21:56:29.568Z,5.23
2022-11-27T21:58:56.281Z,5.30
2022-11-27T22:01:25.693Z,5.24
2022-11-27T22:03:57.271Z,5.23
2022-11-27T22:06:30.665Z,5.23
2022-11-27T22:08:58.902Z,5.13
2022-11-27T22:11:30.716Z,5.06
2022-11-27T22:14:03.842Z,4.99
2022-11-27T22:16:36.705Z,5.01
2022-11-27T22:19:07.719Z,5.08
2022-11-27T22:21:34.179Z,5.14
2022-11-27T22:24:03.716Z,5.09
2022-11-27T22:26:30.226Z,5.16
2022-11-27T22:28:58.452Z,5.30
2022-11-27T22:31:29.695Z,5.32
2022-11-27T22:33:57.416Z,5.33
2022-11-27T22:36:31.743Z,5.20
2022-11-27T22:39:01.463Z,5.29
2022-11-27T22:41:31.152Z,5.31
2022-11-27T22:44:00.097Z,5.32
2022-11-27T22:46:32.523Z,5.32
2022-11-27T22:49:03.449Z,5.39
2022-11-27T22:51:31.699Z,5.42
2022-11-27T22:53:58.738Z,5.47
2022-11-27T22:56:25.868Z,5.39
2022-11-27T22:59:06.109Z,5.42
2022-11-27T23:01:40.745Z,5.41
2022-11-27T23:04:07.850Z,5.39
2022-11-27T23:06:34.359Z,5.19
2022-11-27T23:09:01.041Z,4.95
2022-11-27T23:11:28.436Z,5.03
2022-11-27T23:13:57.877Z,5.08
2022-11-27T23:16:24.769Z,5.10
2022-11-27T23:18:51.499Z,4.97
2022-11-27T23:21:22.927Z,4.90
2022-11-27T23:23:50.058Z,5.05
2022-11-27T23:26:21.205Z,5.03
2022-11-27T23:28:52.050Z,4.93
2022-11-27T23:31:31.228Z,4.85
2022-11-27T23:34:01.498Z,4.95
2022-11-27T23:36:29.683Z,4.98
2022-11-27T23:38:56.452Z,4.98
2022-11-27T23:41:24.959Z,4.86
2022-11-27T23:43:53.891Z,4.93
2022-11-27T23:46:25.017Z,4.88
2022-11-27T23:48:51.766Z,4.83
2022-11-27T23:51:22.623Z,4.78
2022-11-27T23:53:52.746Z,4.61
2022-11-27T23:56:30.237Z,4.72
2022-11-27T23:58:57.870Z,4.68
